createdAt,value
2023-04-05T00:01:28.643Z,6.97
2023-04-05T00:03:31.444Z,7.63
2023-04-05T00:05:34.570Z,6.75
2023-04-05T00:07:36.819Z,6.78
2023-04-05T00:09:39.004Z,6.68
2023-04-05T00:11:41.149Z,7.13
2023-04-05T00:13:43.534Z,6.45
2023-04-05T00:15:45.738Z,7.28
2023-04-05T00:17:47.978Z,6.47
2023-04-05T00:19:57.224Z,6.95
2023-04-05T00:21:59.562Z,7.38
2023-04-05T00:24:01.725Z,6.88
2023-04-05T00:26:03.915Z,7.03
2023-04-05T00:28:06.087Z,6.78
2023-04-05T00:30:08.580Z,6.88
2023-04-05T00:34:13.020Z,6.85
2023-04-05T00:36:16.707Z,6.50
2023-04-05T00:38:18.941Z,7.35
2023-04-05T00:40:21.128Z,7.63
2023-04-05T00:42:23.260Z,8.10
2023-04-05T00:44:26.660Z,7.53
2023-04-05T00:46:29.735Z,7.47
2023-04-05T00:48:32.121Z,7.13
2023-04-05T00:50:34.812Z,7.50
2023-04-05T00:52:40.754Z,7.78
2023-04-05T00:54:43.420Z,7.03
2023-04-05T00:56:45.754Z,8.30
2023-04-05T00:58:48.894Z,7.53
2023-04-05T01:00:54.128Z,7.07
2023-04-05T01:03:01.932Z,7.03
2023-04-05T01:05:05.450Z,7.35
2023-04-05T01:07:19.943Z,6.75
2023-04-05T01:09:44.008Z,6.95
2023-04-05T01:11:48.324Z,6.97
2023-04-05T01:13:50.751Z,6.15
2023-04-05T01:17:57.698Z,7.25
2023-04-05T01:20:01.159Z,6.80
2023-04-05T01:22:14.133Z,6.85
2023-04-05T01:24:57.813Z,6.60
2023-04-05T01:29:19.880Z,6.05
2023-04-05T01:31:22.033Z,7.38
2023-04-05T01:33:35.572Z,6.68
2023-04-05T01:35:41.321Z,6.32
2023-04-05T01:37:45.556Z,6.70
2023-04-05T01:39:48.378Z,6.82
2023-04-05T01:41:50.712Z,6.28
2023-04-05T01:43:52.798Z,6.25
2023-04-05T01:45:54.953Z,6.10
2023-04-05T01:47:57.207Z,6.13
2023-04-05T01:49:59.539Z,6.35
2023-04-05T01:52:01.683Z,6.70
2023-04-05T01:54:03.836Z,7.13
2023-04-05T01:56:06.118Z,6.15
2023-04-05T01:58:09.041Z,6.15
2023-04-05T02:00:12.196Z,6.05
2023-04-05T02:02:14.498Z,5.80
2023-04-05T02:04:16.738Z,5.75
2023-04-05T02:06:18.915Z,6.43
2023-04-05T02:08:21.051Z,6.38
2023-04-05T02:10:23.468Z,6.65
2023-04-05T02:12:25.668Z,6.07
2023-04-05T02:14:27.801Z,6.00
2023-04-05T02:16:33.465Z,5.93
2023-04-05T02:18:38.578Z,6.05
2023-04-05T02:20:40.982Z,5.97
2023-04-05T02:22:45.327Z,6.13
2023-04-05T02:24:48.000Z,6.30
2023-04-05T02:26:51.321Z,6.30
2023-04-05T02:28:53.487Z,6.43
2023-04-05T02:30:56.123Z,6.70
2023-04-05T02:32:58.276Z,5.72
2023-04-05T02:35:00.487Z,6.85
2023-04-05T02:37:03.058Z,6.47
2023-04-05T02:39:05.193Z,5.70
2023-04-05T02:41:11.746Z,6.13
2023-04-05T02:43:14.215Z,6.32
2023-04-05T02:47:21.633Z,5.67
2023-04-05T02:49:23.877Z,5.70
2023-04-05T02:51:27.010Z,5.88
2023-04-05T02:53:29.129Z,5.80
2023-04-05T02:55:34.050Z,5.78
2023-04-05T02:57:36.281Z,6.40
2023-04-05T02:59:39.029Z,5.85
2023-04-05T03:01:44.313Z,5.93
2023-04-05T03:03:46.794Z,5.57
2023-04-05T03:05:49.671Z,6.18
2023-04-05T03:07:52.400Z,5.45
2023-04-05T03:09:54.676Z,5.78
2023-04-05T03:11:57.009Z,5.53
2023-04-05T03:13:59.158Z,5.30
2023-04-05T03:16:01.332Z,6.32
2023-04-05T03:18:03.565Z,6.20
2023-04-05T03:20:09.851Z,6.15
2023-04-05T03:22:11.979Z,6.25
2023-04-05T03:24:14.133Z,5.82
2023-04-05T03:26:16.484Z,5.93
2023-04-05T03:28:18.657Z,6.70
2023-04-05T03:30:21.352Z,6.15
2023-04-05T03:32:23.566Z,5.75
2023-04-05T03:34:29.026Z,6.00
2023-04-05T03:36:41.642Z,6.20
2023-04-05T03:40:46.040Z,5.75
2023-04-05T03:44:53.941Z,6.30
2023-04-05T03:46:56.353Z,6.20
2023-04-05T03:51:00.574Z,4.97
2023-04-05T03:53:03.518Z,6.03
2023-04-05T03:55:06.062Z,5.90
2023-04-05T03:57:08.259Z,6.20
2023-04-05T03:59:10.416Z,6.40
2023-04-05T04:01:13.068Z,6.63
2023-04-05T04:03:15.515Z,5.88
2023-04-05T04:05:18.207Z,5.88
2023-04-05T04:07:20.558Z,6.38
2023-04-05T04:09:23.042Z,6.28
2023-04-05T04:13:27.417Z,6.07
2023-04-05T04:15:29.557Z,6.47
2023-04-05T04:17:32.635Z,6.35
2023-04-05T04:19:34.796Z,6.65
2023-04-05T04:21:39.576Z,6.20
2023-04-05T04:23:45.958Z,6.10
2023-04-05T04:25:50.562Z,6.18
2023-04-05T04:27:54.636Z,6.40
2023-04-05T04:30:01.920Z,6.43
2023-04-05T04:32:06.974Z,5.90
2023-04-05T04:34:10.145Z,6.57
2023-04-05T04:36:13.760Z,7.03
2023-04-05T04:38:18.984Z,6.07
2023-04-05T04:40:22.883Z,6.30
2023-04-05T04:42:25.831Z,6.18
2023-04-05T04:44:28.332Z,6.30
2023-04-05T04:48:38.032Z,6.18
2023-04-05T04:50:40.230Z,7.20
2023-04-05T04:52:42.648Z,6.40
2023-04-05T04:56:49.524Z,6.30
2023-04-05T04:58:54.259Z,6.70
2023-04-05T05:00:57.276Z,6.03
2023-04-05T05:02:59.694Z,6.22
2023-04-05T05:05:02.062Z,7.18
2023-04-05T05:07:04.258Z,5.90
2023-04-05T05:09:06.507Z,6.40
2023-04-05T05:11:08.699Z,6.22
2023-04-05T05:13:11.269Z,6.47
2023-04-05T05:15:13.625Z,7.18
2023-04-05T05:19:17.948Z,5.50
2023-04-05T05:21:20.113Z,7.60
2023-04-05T05:23:22.281Z,7.13
2023-04-05T05:25:24.443Z,6.72
2023-04-05T05:27:26.712Z,7.30
2023-04-05T05:29:28.982Z,6.93
2023-04-05T05:31:33.002Z,6.97
2023-04-05T05:33:35.677Z,7.28
2023-04-05T05:35:38.249Z,8.30
2023-04-05T05:37:40.820Z,7.13
2023-04-05T05:39:44.799Z,7.00
2023-04-05T05:41:46.995Z,7.38
2023-04-05T05:43:49.144Z,7.97
2023-04-05T05:45:51.398Z,8.23
2023-04-05T05:47:53.625Z,8.35
2023-04-05T05:49:56.339Z,7.95
2023-04-05T05:51:58.600Z,7.43
2023-04-05T05:54:01.344Z,7.85
2023-04-05T05:56:03.570Z,8.13
2023-04-05T05:58:06.379Z,8.15
2023-04-05T06:00:10.632Z,8.38
2023-04-05T06:02:13.169Z,10.18
2023-04-05T06:06:18.772Z,9.23
2023-04-05T06:08:21.045Z,9.30
2023-04-05T06:10:24.670Z,9.45
2023-04-05T06:12:28.817Z,10.02
2023-04-05T06:14:31.230Z,9.50
2023-04-05T06:16:35.344Z,9.40
2023-04-05T06:18:37.516Z,8.60
2023-04-05T06:20:41.429Z,8.52
2023-04-05T06:22:44.432Z,7.93
2023-04-05T06:24:46.666Z,7.60
2023-04-05T06:26:48.833Z,7.65
2023-04-05T06:28:51.026Z,8.60
2023-04-05T06:30:53.160Z,7.68
2023-04-05T06:32:55.575Z,8.35
2023-04-05T06:34:57.796Z,7.55
2023-04-05T06:36:59.950Z,8.57
2023-04-05T06:39:02.313Z,7.72
2023-04-05T06:41:04.990Z,7.90
2023-04-05T06:43:07.589Z,7.47
2023-04-05T06:45:10.458Z,8.00
2023-04-05T06:47:12.606Z,7.47
2023-04-05T06:49:14.734Z,7.88
2023-04-05T06:51:16.934Z,7.50
2023-04-05T06:53:19.736Z,7.38
2023-04-05T06:55:22.294Z,8.25
2023-04-05T06:59:27.471Z,7.90
2023-04-05T07:01:29.990Z,7.45
2023-04-05T07:03:32.716Z,7.60
2023-04-05T07:05:34.950Z,7.28
2023-04-05T07:07:42.415Z,7.78
2023-04-05T07:09:44.596Z,7.78
2023-04-05T07:11:46.910Z,7.90
2023-04-05T07:13:49.096Z,8.95
2023-04-05T07:15:51.930Z,7.93
2023-04-05T07:17:54.481Z,7.68
2023-04-05T07:19:56.754Z,7.40
2023-04-05T07:21:59.790Z,7.50
2023-04-05T07:24:03.314Z,7.90
2023-04-05T07:26:05.811Z,7.40
2023-04-05T07:28:08.320Z,8.23
2023-04-05T07:30:10.850Z,7.15
2023-04-05T07:32:12.995Z,7.55
2023-04-05T07:34:15.449Z,6.45
2023-04-05T07:36:17.701Z,6.68
2023-04-05T07:38:19.902Z,6.68
2023-04-05T07:40:22.132Z,6.72
2023-04-05T07:42:24.243Z,6.32
2023-04-05T07:44:26.450Z,6.30
2023-04-05T07:46:29.936Z,6.40
2023-04-05T07:48:32.410Z,6.25
2023-04-05T07:50:39.812Z,6.57
2023-04-05T07:52:42.748Z,6.20
2023-04-05T07:54:45.946Z,6.38
2023-04-05T07:56:49.516Z,5.97
2023-04-05T07:58:54.941Z,5.60
2023-04-05T08:01:01.236Z,6.30
2023-04-05T08:03:04.663Z,5.95
2023-04-05T08:05:07.132Z,6.20
2023-04-05T08:07:09.733Z,6.43
2023-04-05T08:09:11.965Z,7.10
2023-04-05T08:11:14.241Z,6.03
2023-04-05T08:13:16.472Z,6.75
2023-04-05T08:15:18.614Z,7.00
2023-04-05T08:17:20.749Z,6.80
2023-04-05T08:19:22.888Z,6.38
2023-04-05T08:21:25.185Z,6.72
2023-04-05T08:23:27.422Z,5.80
2023-04-05T08:25:29.607Z,5.82
2023-04-05T08:27:31.965Z,6.60
2023-04-05T08:29:34.279Z,5.95
2023-04-05T08:31:36.759Z,6.03
2023-04-05T08:33:38.970Z,6.40
2023-04-05T08:35:41.249Z,6.50
2023-04-05T08:37:43.490Z,5.93
2023-04-05T08:39:45.695Z,6.50
2023-04-05T08:41:51.053Z,7.70
2023-04-05T08:43:53.247Z,6.38
2023-04-05T08:45:57.765Z,6.72
2023-04-05T08:48:00.112Z,5.90
2023-04-05T08:50:02.345Z,5.90
2023-04-05T08:52:06.093Z,5.88
2023-04-05T08:54:08.318Z,5.78
2023-04-05T08:56:12.296Z,5.88
2023-04-05T08:58:15.440Z,5.93
2023-04-05T09:00:18.934Z,5.63
2023-04-05T09:02:22.593Z,5.93
2023-04-05T09:04:26.662Z,5.95
2023-04-05T09:06:29.486Z,5.70
2023-04-05T09:08:31.675Z,4.95
2023-04-05T09:10:33.997Z,5.03
2023-04-05T09:12:36.962Z,5.32
2023-04-05T09:14:39.375Z,5.30
2023-04-05T09:16:42.405Z,5.22
2023-04-05T09:18:44.684Z,5.68
2023-04-05T09:20:46.827Z,5.38
2023-04-05T09:22:49.308Z,5.70
2023-04-05T09:24:51.536Z,5.60
2023-04-05T09:27:04.356Z,5.28
2023-04-05T09:29:06.531Z,5.50
2023-04-05T09:31:08.761Z,5.78
2023-04-05T09:33:11.038Z,5.00
2023-04-05T09:35:18.687Z,4.80
2023-04-05T09:37:21.697Z,5.70
2023-04-05T09:39:29.115Z,5.78
2023-04-05T09:41:31.230Z,4.90
2023-04-05T09:43:37.689Z,5.47
2023-04-05T09:45:41.708Z,5.18
2023-04-05T09:49:52.077Z,4.55
2023-04-05T09:51:54.270Z,5.05
2023-04-05T09:54:02.250Z,5.40
2023-04-05T09:56:10.393Z,4.53
2023-04-05T09:58:14.065Z,4.40
2023-04-05T10:00:20.704Z,5.20
2023-04-05T10:02:23.363Z,4.97
2023-04-05T10:04:25.803Z,5.43
2023-04-05T10:06:40.834Z,5.50
2023-04-05T10:08:43.120Z,5.15
2023-04-05T10:10:48.616Z,4.65
2023-04-05T10:12:51.204Z,4.80
2023-04-05T10:14:53.598Z,5.78
2023-04-05T10:17:11.118Z,5.50
2023-04-05T10:19:18.245Z,4.95
2023-04-05T10:21:24.240Z,4.65
2023-04-05T10:23:29.031Z,4.65
2023-04-05T10:25:31.131Z,5.28
2023-04-05T10:27:53.049Z,5.25
2023-04-05T10:30:05.904Z,5.22
2023-04-05T10:32:38.650Z,5.18
2023-04-05T10:34:46.771Z,4.55
2023-04-05T10:37:04.587Z,4.82
2023-04-05T10:39:13.025Z,4.95
2023-04-05T10:41:15.610Z,4.57
2023-04-05T10:43:23.657Z,4.28
2023-04-05T10:45:26.351Z,5.18
2023-04-05T10:47:32.716Z,5.47
2023-04-05T10:49:40.207Z,5.10
2023-04-05T10:51:43.914Z,4.68
2023-04-05T10:53:47.960Z,4.75
2023-04-05T10:55:51.588Z,4.72
2023-04-05T10:57:55.010Z,4.68
2023-04-05T10:59:58.219Z,4.93
2023-04-05T11:02:01.011Z,4.78
2023-04-05T11:04:12.849Z,4.78
2023-04-05T11:06:35.468Z,4.50
2023-04-05T11:08:42.399Z,4.43
2023-04-05T11:10:52.903Z,4.47
2023-04-05T11:12:56.085Z,4.43
2023-04-05T11:15:18.209Z,4.82
2023-04-05T11:17:28.069Z,4.40
2023-04-05T11:19:48.466Z,6.03
2023-04-05T11:22:01.572Z,4.43
2023-04-05T11:26:06.717Z,4.30
2023-04-05T11:28:09.311Z,4.30
2023-04-05T11:30:11.665Z,4.57
2023-04-05T11:32:13.902Z,4.85
2023-04-05T11:34:25.260Z,5.13
2023-04-05T11:36:39.355Z,4.57
2023-04-05T11:38:44.608Z,4.95
2023-04-05T11:40:48.399Z,4.70
2023-04-05T11:42:58.580Z,5.18
2023-04-05T11:45:00.918Z,5.10
2023-04-05T11:47:05.139Z,5.68
2023-04-05T11:49:08.011Z,4.75
2023-04-05T11:51:10.798Z,5.35
2023-04-05T11:55:15.409Z,4.75
2023-04-05T11:57:22.295Z,5.03
2023-04-05T11:59:30.616Z,4.68
2023-04-05T12:01:32.865Z,4.72
2023-04-05T12:03:35.756Z,5.22
2023-04-05T12:05:47.221Z,4.78
2023-04-05T12:07:55.707Z,5.22
2023-04-05T12:09:57.833Z,4.93
2023-04-05T12:12:00.007Z,5.05
2023-04-05T12:14:02.552Z,4.82
2023-04-05T12:16:08.230Z,5.25
2023-04-05T12:18:14.100Z,5.07
2023-04-05T12:20:17.432Z,4.82
2023-04-05T12:22:19.612Z,4.78
2023-04-05T12:24:21.928Z,4.78
2023-04-05T12:26:24.216Z,4.72
2023-04-05T12:28:26.487Z,4.85
2023-04-05T12:30:36.174Z,4.93
2023-04-05T12:32:50.713Z,4.35
2023-04-05T12:34:57.850Z,5.38
2023-04-05T12:37:03.117Z,5.00
2023-04-05T12:39:09.427Z,5.47
2023-04-05T12:41:11.741Z,4.47
2023-04-05T12:43:19.739Z,4.88
2023-04-05T12:45:24.049Z,4.35
2023-04-05T12:47:29.439Z,5.18
2023-04-05T12:49:36.042Z,5.60
2023-04-05T12:51:38.558Z,4.97
2023-04-05T12:53:45.208Z,5.53
2023-04-05T12:55:56.773Z,5.63
2023-04-05T12:58:02.337Z,5.30
2023-04-05T13:00:05.275Z,5.47
2023-04-05T13:02:07.456Z,4.53
2023-04-05T13:04:16.095Z,4.70
2023-04-05T13:06:19.174Z,5.30
2023-04-05T13:08:21.598Z,5.40
2023-04-05T13:10:24.687Z,6.05
2023-04-05T13:12:26.818Z,5.00
2023-04-05T13:14:28.945Z,5.15
2023-04-05T13:16:31.149Z,5.10
2023-04-05T13:18:33.352Z,5.45
2023-04-05T13:20:36.062Z,5.07
2023-04-05T13:24:40.379Z,5.13
2023-04-05T13:26:42.583Z,5.20
2023-04-05T13:28:44.883Z,5.57
2023-04-05T13:30:48.047Z,5.55
2023-04-05T13:32:51.347Z,4.78
2023-04-05T13:34:53.567Z,4.85
2023-04-05T13:36:55.867Z,5.32
2023-04-05T13:38:58.027Z,5.68
2023-04-05T13:41:00.213Z,5.50
2023-04-05T13:43:02.451Z,5.05
2023-04-05T13:45:05.138Z,5.63
2023-04-05T13:47:07.595Z,5.45
2023-04-05T13:49:09.771Z,5.30
2023-04-05T13:51:12.012Z,5.40
2023-04-05T13:53:14.516Z,5.57
2023-04-05T13:55:16.757Z,5.40
2023-04-05T13:57:18.949Z,4.95
2023-04-05T13:59:21.277Z,5.22
2023-04-05T14:01:23.553Z,5.32
2023-04-05T14:03:26.639Z,5.68
2023-04-05T14:05:28.930Z,5.25
2023-04-05T14:07:31.261Z,5.45
2023-04-05T14:09:33.993Z,5.53
2023-04-05T14:13:38.306Z,5.05
2023-04-05T14:15:40.847Z,5.63
2023-04-05T14:17:43.167Z,5.22
2023-04-05T14:19:45.443Z,4.72
2023-04-05T14:21:47.643Z,5.57
2023-04-05T14:23:53.009Z,5.10
2023-04-05T14:25:55.291Z,5.60
2023-04-05T14:27:57.439Z,5.18
2023-04-05T14:29:59.635Z,5.45
2023-04-05T14:32:01.891Z,4.93
2023-04-05T14:34:04.073Z,4.47
2023-04-05T14:36:06.455Z,5.28
2023-04-05T14:38:08.611Z,5.30
2023-04-05T14:40:11.075Z,5.05
2023-04-05T14:42:13.267Z,5.60
2023-04-05T14:44:15.484Z,5.30
2023-04-05T14:46:17.773Z,4.93
2023-04-05T14:48:19.964Z,5.45
2023-04-05T14:50:22.223Z,5.30
2023-04-05T14:52:24.388Z,5.32
2023-04-05T14:54:26.594Z,4.68
2023-04-05T14:56:28.868Z,4.80
2023-04-05T14:58:33.003Z,5.45
2023-04-05T15:00:35.762Z,4.82
2023-04-05T15:04:41.390Z,5.50
2023-04-05T15:06:43.627Z,5.50
2023-04-05T15:08:45.863Z,4.32
2023-04-05T15:10:48.260Z,5.40
2023-04-05T15:12:50.674Z,5.00
2023-04-05T15:14:54.287Z,5.05
2023-04-05T15:16:56.574Z,5.22
2023-04-05T15:19:01.543Z,4.63
2023-04-05T15:21:03.697Z,5.03
2023-04-05T15:23:06.267Z,5.53
2023-04-05T15:25:09.236Z,5.28
2023-04-05T15:27:11.848Z,5.18
2023-04-05T15:29:14.128Z,5.20
2023-04-05T15:31:16.355Z,5.80
2023-04-05T15:33:18.622Z,5.40
2023-04-05T15:35:21.101Z,5.88
2023-04-05T15:37:23.278Z,5.65
2023-04-05T15:39:25.951Z,5.60
2023-04-05T15:41:28.108Z,5.38
2023-04-05T15:43:31.898Z,5.25
2023-04-05T15:45:34.133Z,5.00
2023-04-05T15:47:36.396Z,5.15
2023-04-05T15:49:38.640Z,5.15
2023-04-05T15:51:40.819Z,5.03
2023-04-05T15:53:43.007Z,5.25
2023-04-05T15:55:45.160Z,5.38
2023-04-05T15:57:49.477Z,5.38
2023-04-05T15:59:52.911Z,4.63
2023-04-05T16:01:55.214Z,5.00
2023-04-05T16:03:57.695Z,5.28
2023-04-05T16:06:00.131Z,5.10
2023-04-05T16:08:02.422Z,5.50
2023-04-05T16:10:05.299Z,5.13
2023-04-05T16:14:11.442Z,5.43
2023-04-05T16:16:20.539Z,5.20
2023-04-05T16:18:31.713Z,5.18
2023-04-05T16:20:33.928Z,4.95
2023-04-05T16:22:36.366Z,4.72
2023-04-05T16:24:39.301Z,5.30
2023-04-05T16:26:41.586Z,5.22
2023-04-05T16:28:43.782Z,5.68
2023-04-05T16:30:48.201Z,4.97
2023-04-05T16:32:52.296Z,5.00
2023-04-05T16:34:54.557Z,4.85
2023-04-05T16:36:56.773Z,4.80
2023-04-05T16:38:58.934Z,5.10
2023-04-05T16:41:01.261Z,4.95
2023-04-05T16:43:03.439Z,5.05
2023-04-05T16:45:06.527Z,5.32
2023-04-05T16:47:08.745Z,5.75
2023-04-05T16:49:10.989Z,5.80
2023-04-05T16:51:13.480Z,5.90
2023-04-05T16:53:16.057Z,5.80
2023-04-05T16:55:18.378Z,5.75
2023-04-05T16:57:20.652Z,5.50
2023-04-05T16:59:22.895Z,5.55
2023-04-05T17:01:25.364Z,5.60
2023-04-05T17:03:27.857Z,5.28
2023-04-05T17:05:30.154Z,5.43
2023-04-05T17:07:32.688Z,5.20
2023-04-05T17:09:34.852Z,4.90
2023-04-05T17:11:37.152Z,5.18
2023-04-05T17:13:41.428Z,5.47
2023-04-05T17:15:43.592Z,5.25
2023-04-05T17:17:46.260Z,5.43
2023-04-05T17:19:48.666Z,6.15
2023-04-05T17:21:50.932Z,5.75
2023-04-05T17:23:53.142Z,5.47
2023-04-05T17:25:55.315Z,5.68
2023-04-05T17:27:57.682Z,5.80
2023-04-05T17:30:00.336Z,5.45
2023-04-05T17:32:02.636Z,5.07
2023-04-05T17:34:04.852Z,5.35
2023-04-05T17:36:07.358Z,5.10
2023-04-05T17:38:11.035Z,5.68
2023-04-05T17:40:13.636Z,5.32
2023-04-05T17:42:17.071Z,5.43
2023-04-05T17:44:19.906Z,4.95
2023-04-05T17:46:33.987Z,4.75
2023-04-05T17:48:42.971Z,6.50
2023-04-05T17:50:45.409Z,6.00
2023-04-05T17:52:47.859Z,6.20
2023-04-05T17:54:52.351Z,6.55
2023-04-05T17:56:54.563Z,8.57
2023-04-05T17:58:56.874Z,9.13
2023-04-05T18:01:00.220Z,7.93
2023-04-05T18:03:07.347Z,7.85
2023-04-05T18:05:10.255Z,7.80
2023-04-05T18:07:13.055Z,6.50
2023-04-05T18:09:15.597Z,7.38
2023-04-05T18:11:17.765Z,6.97
2023-04-05T18:13:19.966Z,6.05
2023-04-05T18:15:22.099Z,6.68
2023-04-05T18:17:24.371Z,7.50
2023-04-05T18:19:26.665Z,8.10
2023-04-05T18:21:28.898Z,6.60
2023-04-05T18:23:31.088Z,6.60
2023-04-05T18:25:33.282Z,6.25
2023-04-05T18:27:35.783Z,6.45
2023-04-05T18:29:38.245Z,6.80
2023-04-05T18:31:40.517Z,7.13
2023-04-05T18:33:42.800Z,7.50
2023-04-05T18:35:51.382Z,8.07
2023-04-05T18:37:53.688Z,9.15
2023-04-05T18:39:56.076Z,8.73
2023-04-05T18:41:58.315Z,9.52
2023-04-05T18:44:00.761Z,9.93
2023-04-05T18:46:02.980Z,9.02
2023-04-05T18:48:05.487Z,9.52
2023-04-05T18:50:09.944Z,11.45
2023-04-05T18:52:12.138Z,11.18
2023-04-05T18:54:14.375Z,12.38
2023-04-05T18:56:16.882Z,12.52
2023-04-05T18:58:19.074Z,12.52
2023-04-05T19:00:21.526Z,14.05
2023-04-05T19:02:23.885Z,13.35
2023-04-05T19:04:26.196Z,13.30
2023-04-05T19:06:29.344Z,13.70
2023-04-05T19:08:31.515Z,14.63
2023-04-05T19:10:33.807Z,15.82
2023-04-05T19:12:35.983Z,13.77
2023-04-05T19:14:38.211Z,11.90
2023-04-05T19:16:40.389Z,10.73
2023-04-05T19:18:42.556Z,11.13
2023-04-05T19:20:44.777Z,10.60
2023-04-05T19:22:46.955Z,10.13
2023-04-05T19:24:49.108Z,10.10
2023-04-05T19:26:51.417Z,10.10
2023-04-05T19:28:53.668Z,9.38
2023-04-05T19:30:56.460Z,8.10
2023-04-05T19:32:58.742Z,8.45
2023-04-05T19:35:01.383Z,8.18
2023-04-05T19:37:04.190Z,9.05
2023-04-05T19:39:06.945Z,9.48
2023-04-05T19:41:09.406Z,10.38
2023-04-05T19:43:13.056Z,11.15
2023-04-05T19:45:16.289Z,11.40
2023-04-05T19:47:20.732Z,10.43
2023-04-05T19:49:27.206Z,10.20
2023-04-05T19:51:29.485Z,10.95
2023-04-05T19:53:37.877Z,11.35
2023-04-05T19:55:40.288Z,10.18
2023-04-05T19:57:42.938Z,9.65
2023-04-05T20:01:48.075Z,9.18
2023-04-05T20:03:50.874Z,10.25
2023-04-05T20:05:58.896Z,9.88
2023-04-05T20:08:01.127Z,9.77
2023-04-05T20:10:04.990Z,9.80
2023-04-05T20:12:07.434Z,9.57
2023-04-05T20:14:09.647Z,9.88
2023-04-05T20:16:13.256Z,10.85
2023-04-05T20:18:19.139Z,10.80
2023-04-05T20:20:21.408Z,10.27
2023-04-05T20:22:23.606Z,10.63
2023-04-05T20:24:27.659Z,10.77
2023-04-05T20:26:31.292Z,10.82
2023-04-05T20:28:36.088Z,11.00
2023-04-05T20:30:38.286Z,10.90
2023-04-05T20:32:40.717Z,11.20
2023-04-05T20:34:44.115Z,10.40
2023-04-05T20:36:53.476Z,11.57
2023-04-05T20:38:55.698Z,10.40
2023-04-05T20:40:57.840Z,11.38
2023-04-05T20:43:00.034Z,10.27
2023-04-05T20:45:02.243Z,10.45
2023-04-05T20:47:04.440Z,11.10
2023-04-05T20:49:07.387Z,10.90
2023-04-05T20:51:10.380Z,10.95
2023-04-05T20:53:12.570Z,11.10
2023-04-05T20:55:14.857Z,11.65
2023-04-05T20:57:17.068Z,11.00
2023-04-05T20:59:19.362Z,11.65
2023-04-05T21:01:21.707Z,10.82
2023-04-05T21:03:24.235Z,11.07
2023-04-05T21:05:26.603Z,10.70
2023-04-05T21:07:28.884Z,10.88
2023-04-05T21:09:31.169Z,10.00
2023-04-05T21:11:33.367Z,9.02
2023-04-05T21:13:35.806Z,9.43
2023-04-05T21:15:38.007Z,9.70
2023-04-05T21:17:40.216Z,9.75
2023-04-05T21:19:42.445Z,10.57
2023-04-05T21:21:47.383Z,10.63
2023-04-05T21:23:50.044Z,9.75
2023-04-05T21:25:52.218Z,10.15
2023-04-05T21:27:54.485Z,10.02
2023-04-05T21:29:56.709Z,9.85
2023-04-05T21:31:58.853Z,10.35
2023-04-05T21:34:01.006Z,9.68
2023-04-05T21:36:03.317Z,10.13
2023-04-05T21:38:05.906Z,11.65
2023-04-05T21:40:08.485Z,11.63
2023-04-05T21:44:12.884Z,10.88
2023-04-05T21:46:15.121Z,10.80
2023-04-05T21:48:17.378Z,10.70
2023-04-05T21:50:19.585Z,9.80
2023-04-05T21:52:21.793Z,10.07
2023-04-05T21:54:24.120Z,10.20
2023-04-05T21:56:26.297Z,9.70
2023-04-05T21:58:28.474Z,9.98
2023-04-05T22:00:30.798Z,9.70
2023-04-05T22:02:33.015Z,9.85
2023-04-05T22:04:35.700Z,8.80
2023-04-05T22:08:40.103Z,7.83
2023-04-05T22:10:43.720Z,8.65
2023-04-05T22:12:46.147Z,8.38
2023-04-05T22:14:48.416Z,8.35
2023-04-05T22:16:50.680Z,9.38
2023-04-05T22:18:53.486Z,8.32
2023-04-05T22:20:56.125Z,9.38
2023-04-05T22:22:58.360Z,9.40
2023-04-05T22:25:00.709Z,8.68
2023-04-05T22:27:02.913Z,9.18
2023-04-05T22:29:05.172Z,8.82
2023-04-05T22:31:07.364Z,9.25
2023-04-05T22:33:09.605Z,8.27
2023-04-05T22:35:11.801Z,8.38
2023-04-05T22:37:13.976Z,9.40
2023-04-05T22:39:16.375Z,8.40
2023-04-05T22:41:18.789Z,8.27
2023-04-05T22:43:20.995Z,8.13
2023-04-05T22:45:25.101Z,7.88
2023-04-05T22:47:27.381Z,8.65
2023-04-05T22:49:29.789Z,8.00
2023-04-05T22:51:31.967Z,7.55
2023-04-05T22:53:34.223Z,6.95
2023-04-05T22:55:39.674Z,7.72
2023-04-05T22:57:41.904Z,7.40
2023-04-05T22:59:44.138Z,7.68
2023-04-05T23:01:46.427Z,7.13
2023-04-05T23:03:48.745Z,7.55
2023-04-05T23:05:52.340Z,7.60
2023-04-05T23:07:54.593Z,7.38
2023-04-05T23:09:56.776Z,7.47
2023-04-05T23:11:58.975Z,7.68
2023-04-05T23:14:01.483Z,8.00
2023-04-05T23:16:03.834Z,8.57
2023-04-05T23:18:06.323Z,8.15
2023-04-05T23:22:11.571Z,6.97
2023-04-05T23:24:13.821Z,7.40
2023-04-05T23:26:16.203Z,7.10
2023-04-05T23:28:18.518Z,7.10
2023-04-05T23:30:20.685Z,7.88
2023-04-05T23:32:23.240Z,7.85
2023-04-05T23:36:28.817Z,7.03
2023-04-05T23:38:31.578Z,6.93
2023-04-05T23:40:33.746Z,7.15
2023-04-05T23:42:35.962Z,7.20
2023-04-05T23:44:38.731Z,7.95
2023-04-05T23:46:41.248Z,7.28
2023-04-05T23:50:45.609Z,6.70
2023-04-05T23:52:47.821Z,6.72
2023-04-05T23:54:49.969Z,7.53
2023-04-05T23:56:52.178Z,7.78
2023-04-05T23:58:54.355Z,7.35
